M I D A S
Marine Information and Data Acquisition System
Tripno 753 of the Zeeleeuw from 2004-07-29 09:05:46 to 2004-07-29 12:11:41
Back to CruiseResearch ActivitiesStationsMapUnderway DataData graphs

EquipmentUnitsComment
TimeDGPSUTC
LatitudeDGPSDM.mWGS84
LongitudeDGPSDM.mWGS84
TemperatureSBE03/SBE38deg celciusITS90
ConductivitySBE21S/mITS90
SalinitySBE21 Practical Salinity Units
ChlorophylAChelsea fluorimeterg/lCalibrated in Aceton
Missing or incorrect values are displayed as -999
Sea surface data collected by the RV Zeeleeuw from 2004-07-29 09:05:46 to 2004-07-29 12:11:41
Time Latitude Longitude Temperature Conductivity Salinity ChlorophylA
2004-07-29 09:06:50 51°10.944 2°26.914 18.16159 4.567307 34.535181 0.128905
2004-07-29 09:07:50 51°10.921 2°26.608 18.150455 4.567307 34.53579 0.095195
2004-07-29 09:08:50 51°11.015 2°26.32 18.113091 4.565409 34.53552 0.128905
2004-07-29 09:09:53 51°11.199 2°26.122 18.097957 4.56119 34.529581 0.128905
2004-07-29 09:10:51 51°11.413 2°26.1 18.075583 4.559713 34.526801 0.162614
2004-07-29 09:11:53 51°11.65 2°26.103 18.067014 4.558342 34.527355 0.196324
2004-07-29 09:12:53 51°11.884 2°26.102 18.075292 4.558658 34.526992 0.196324
2004-07-29 09:13:52 51°12.118 2°26.104 18.124024 4.560978 34.524137 0.162614
2004-07-29 09:14:52 51°12.355 2°26.107 18.05886 4.561506 34.524347 0.162614
2004-07-29 09:15:53 51°12.597 2°26.171 18.066723 4.557076 34.515393 0.196324
2004-07-29 09:16:53 51°12.834 2°26.239 18.076415 4.556021 34.519241 0.196324
2004-07-29 09:17:52 51°13.068 2°26.306 18.024235 4.556549 34.525547 0.196324
2004-07-29 09:18:52 51°13.306 2°26.374 18.06069 4.554756 34.527401 0.162614
2004-07-29 09:19:52 51°13.527 2°26.538 18.034974 4.556654 34.528882 0.162614
2004-07-29 09:20:53 51°13.729 2°26.777 18.029439 4.555705 34.535465 0.128905
2004-07-29 09:21:52 51°13.911 2°27.035 18.051703 4.556127 34.535386 0.128905
2004-07-29 09:22:53 51°14.098 2°27.3 18.093508 4.559502 34.534763 0.196324
2004-07-29 09:23:53 51°14.281 2°27.566 18.103571 4.561401 34.535636 0.162614
2004-07-29 09:24:53 51°14.466 2°27.831 18.098789 4.560979 34.541808 0.196324
2004-07-29 09:25:53 51°14.649 2°28.098 18.068761 4.56024 34.54103 0.128905
2004-07-29 09:26:53 51°14.833 2°28.361 18.070466 4.558236 34.538046 0.128905
2004-07-29 09:27:53 51°15.017 2°28.625 18.151078 4.558869 34.537929 0.095195
2004-07-29 09:28:53 51°15.198 2°28.89 18.095754 4.564143 34.536357 0.128905
2004-07-29 09:29:53 51°15.379 2°29.152 18.114921 4.5614 34.526498 0.095195
2004-07-29 09:30:53 51°15.56 2°29.415 18.167156 4.562982 34.517999 0.095195
2004-07-29 09:31:52 51°15.739 2°29.672 18.214372 4.567518 34.507188 0.128905
2004-07-29 09:32:53 51°15.927 2°29.934 18.229854 4.570576 34.504551 0.162614
2004-07-29 09:33:53 51°16.107 2°30.198 18.311981 4.573002 34.498393 0.162614
2004-07-29 09:34:52 51°16.287 2°30.453 18.326654 4.58028 34.496323 0.196324
2004-07-29 09:35:53 51°16.473 2°30.719 18.337843 4.580385 34.493586 0.162614
2004-07-29 09:36:53 51°16.657 2°30.975 18.449098 4.581862 34.48792 0.196324
2004-07-29 09:37:53 51°16.841 2°31.233 18.457455 4.58819 34.47371 0.162614
2004-07-29 09:38:52 51°17.023 2°31.487 18.50807 4.590932 34.467902 0.162614
2004-07-29 09:39:53 51°17.208 2°31.752 18.563522 4.594729 34.462566 0.196324
2004-07-29 09:40:53 51°17.38 2°32.029 18.570213 4.597049 34.455649 0.196324
2004-07-29 09:41:53 51°17.566 2°32.286 18.625368 4.602639 34.444438 0.196324
2004-07-29 09:42:53 51°17.75 2°32.544 18.629453 4.601584 34.429608 0.263742
2004-07-29 09:43:53 51°17.935 2°32.801 18.652021 4.599264 34.411943 0.263742
2004-07-29 09:44:53 51°18.118 2°33.059 18.665221 4.600846 34.400106 0.297452
2004-07-29 09:45:53 51°18.302 2°33.316 18.624831 4.599158 34.391936 0.297452
2004-07-29 09:46:53 51°18.484 2°33.57 18.564183 4.592724 34.385796 0.39858
2004-07-29 09:47:53 51°18.669 2°33.828 18.67949 4.590508 34.364223 0.499708
2004-07-29 09:48:53 51°18.851 2°34.091 18.835802 4.606013 34.357544 0.39858
2004-07-29 09:49:53 51°19.031 2°34.36 18.82926 4.613185 34.350336 0.432289
2004-07-29 09:50:53 51°19.208 2°34.633 18.802304 4.606118 34.326937 0.567127
2004-07-29 09:51:53 51°19.384 2°34.908 18.781678 4.60211 34.310074 0.600836
2004-07-29 09:52:53 51°19.539 2°35.212 18.774472 4.599367 34.294876 0.769383
2004-07-29 09:53:53 51°19.665 2°35.552 18.790612 4.598206 34.27747 0.769383
2004-07-29 09:54:53 51°19.775 2°35.904 18.80535 4.598945 34.267633 0.769383
2004-07-29 09:55:53 51°19.886 2°36.254 18.811359 4.59905 34.259037 0.836802
2004-07-29 09:56:53 51°19.995 2°36.606 18.820125 4.598311 34.249913 0.93793
2004-07-29 09:57:53 51°20.101 2°36.96 18.818849 4.597889 34.246392 0.93793
2004-07-29 09:58:57 51°20.215 2°37.338 18.832922 4.597678 34.239306 0.93793
2004-07-29 09:59:56 51°20.322 2°37.686 18.822224 4.596835 34.235813 0.836802
2004-07-29 10:00:57 51°20.431 2°38.048 18.830577 4.596518 34.230215 1.005349
2004-07-29 10:01:57 51°20.525 2°38.409 18.793618 4.595358 34.229997 1.039059
2004-07-29 10:02:54 51°20.617 2°38.752 18.793412 4.594197 34.219721 0.97164
2004-07-29 10:04:01 51°20.724 2°39.153 18.801686 4.591455 34.224046 0.93793
2004-07-29 10:05:01 51°20.822 2°39.509 18.786619 4.594092 34.222982 0.870512
2004-07-29 10:06:01 51°20.919 2°39.864 18.74218 4.589873 34.21024 0.769383
2004-07-29 10:07:02 51°21.059 2°40.191 18.937556 4.585442 34.183299 0.701965
2004-07-29 10:08:02 51°21.235 2°40.457 19.187919 4.591345 33.982881 0.93793
2004-07-29 10:09:01 51°21.469 2°40.494 19.290184 4.597883 33.905145 0.735674
2004-07-29 10:10:02 51°21.716 2°40.49 19.143817 4.596829 33.923655 0.769383
2004-07-29 10:11:02 51°21.958 2°40.483 19.111695 4.59567 33.981442 0.735674
2004-07-29 10:12:02 51°22.2 2°40.474 19.027963 4.59008 33.995713 0.668255
2004-07-29 10:13:02 51°22.442 2°40.471 19.068242 4.590818 33.969185 0.701965
2004-07-29 10:14:01 51°22.681 2°40.468 19.020659 4.584172 33.950204 0.769383
2004-07-29 10:15:02 51°22.927 2°40.463 18.948936 4.580586 33.933271 0.803093
2004-07-29 10:16:02 51°23.17 2°40.464 18.913108 4.573942 33.969764 0.904221
2004-07-29 10:17:02 51°23.412 2°40.478 18.958095 4.574258 33.940816 0.836802
2004-07-29 10:18:02 51°23.634 2°40.649 18.84004 4.572571 33.991162 1.039059
2004-07-29 10:19:01 51°23.841 2°40.866 18.933941 4.568773 33.956615 1.106477
2004-07-29 10:20:02 51°24.064 2°41.07 18.811359 4.578267 34.032139 1.039059
2004-07-29 10:21:02 51°24.282 2°41.274 18.838888 4.575104 34.060437 1.173896
2004-07-29 10:22:02 51°24.501 2°41.483 18.761252 4.579745 34.109169 1.005349
2004-07-29 10:23:02 51°24.718 2°41.688 18.553443 4.588714 34.269338 0.803093
2004-07-29 10:24:02 51°24.935 2°41.891 18.419635 4.585763 34.410607 0.465999
2004-07-29 10:25:02 51°25.145 2°42.107 18.331751 4.579435 34.460217 0.364871
2004-07-29 10:26:01 51°25.35 2°42.319 18.303855 4.579541 34.4768 0.331161
2004-07-29 10:27:02 51°25.565 2°42.531 18.293863 4.575955 34.484604 0.39858
2004-07-29 10:28:05 51°25.788 2°42.755 18.349445 4.57606 34.458301 0.331161
2004-07-29 10:29:05 51°26.001 2°42.967 18.442892 4.579435 34.437309 0.364871
2004-07-29 10:30:07 51°26.217 2°43.191 18.323462 4.580384 34.448924 0.39858
2004-07-29 10:31:04 51°26.415 2°43.389 18.171518 4.573951 34.491881 0.364871
2004-07-29 10:32:05 51°26.625 2°43.598 18.057362 4.562139 34.537024 0.331161
2004-07-29 10:33:04 51°26.828 2°43.802 18.055198 4.560873 34.53238 0.331161
2004-07-29 10:34:06 51°27.04 2°44.015 18.037887 4.558764 34.527887 0.331161
2004-07-29 10:35:05 51°27.243 2°44.219 18.051994 4.55465 34.528947 0.364871
2004-07-29 10:36:07 51°27.414 2°44.512 18.083527 4.557392 34.513204 0.364871
2004-07-29 10:37:07 51°27.483 2°44.88 18.145511 4.560029 34.488711 0.331161
2004-07-29 10:38:07 51°27.492 2°45.262 18.259563 4.561083 34.455151 0.39858
2004-07-29 10:39:06 51°27.444 2°45.623 18.333326 4.565195 34.39437 0.465999
2004-07-29 10:40:05 51°27.397 2°45.985 18.412185 4.567515 34.360334 0.465999
2004-07-29 10:41:07 51°27.347 2°46.365 18.475241 4.57089 34.337098 0.432289
2004-07-29 10:42:04 51°27.302 2°46.713 18.50807 4.577534 34.319886 0.465999
2004-07-29 10:43:05 51°27.252 2°47.082 18.496949 4.573948 34.30112 0.499708
2004-07-29 10:44:07 51°27.202 2°47.459 18.494675 4.571627 34.301361 0.499708
2004-07-29 10:45:07 51°27.158 2°47.829 18.548155 4.566352 34.227769 0.735674
2004-07-29 10:46:05 51°27.112 2°48.186 18.647896 4.562448 34.131951 1.005349
2004-07-29 10:47:06 51°27.067 2°48.561 18.832017 4.560231 34.030557 1.039059
2004-07-29 10:48:05 51°27.02 2°48.924 18.881538 4.565398 33.937884 0.870512
2004-07-29 10:49:06 51°26.974 2°49.3 18.850118 4.563815 33.911837 0.769383
2004-07-29 10:50:06 51°26.897 2°49.641 18.781349 4.562233 33.903347 0.735674
2004-07-29 10:51:07 51°26.732 2°49.864 18.721331 4.554956 33.935882 0.904221
2004-07-29 10:52:04 51°26.558 2°50.025 18.799875 4.556011 33.923549 0.870512
2004-07-29 10:53:07 51°26.358 2°50.166 18.874301 4.555483 33.906251 0.769383
2004-07-29 10:54:06 51°26.165 2°50.278 18.737071 4.556643 33.90303 0.803093
2004-07-29 10:55:05 51°25.967 2°50.376 18.729284 4.552319 33.944432 0.904221
2004-07-29 10:56:06 51°25.763 2°50.475 18.711604 4.551897 33.919165 0.735674
2004-07-29 10:57:06 51°25.56 2°50.576 18.645008 4.552848 33.990655 0.769383
2004-07-29 10:58:07 51°25.355 2°50.677 18.735259 4.553059 34.019576 0.735674
2004-07-29 10:59:07 51°25.152 2°50.773 18.916519 4.561389 33.906853 0.634546
2004-07-29 11:00:08 51°24.946 2°50.87 18.838641 4.563182 33.90657 0.600836
2004-07-29 11:01:06 51°24.751 2°50.966 18.952427 4.56698 33.917116 0.600836
2004-07-29 11:02:07 51°24.547 2°51.068 19.02148 4.572991 33.890049 0.701965
2004-07-29 11:03:06 51°24.351 2°51.165 18.943595 4.570038 33.914507 0.634546
2004-07-29 11:04:06 51°24.15 2°51.252 18.846745 4.554531 33.7537 0.701965
2004-07-29 11:05:07 51°23.945 2°51.349 18.811235 4.541665 33.823254 0.93793
2004-07-29 11:06:06 51°23.747 2°51.437 18.96713 4.534911 33.637214 0.97164
2004-07-29 11:07:07 51°23.542 2°51.526 19.007322 4.537441 33.572679 0.870512
2004-07-29 11:08:06 51°23.346 2°51.62 19.170928 4.53185 33.479817 0.870512
2004-07-29 11:09:07 51°23.146 2°51.72 19.253222 4.524991 33.307269 0.701965
2004-07-29 11:10:06 51°22.952 2°51.805 19.352819 4.513071 33.181344 0.769383
2004-07-29 11:11:06 51°22.755 2°51.894 19.395361 4.515496 33.113818 0.634546
2004-07-29 11:12:06 51°22.553 2°51.956 19.397034 4.516445 33.099109 0.600836
2004-07-29 11:13:06 51°22.351 2°51.976 19.38932 4.517078 33.11836 0.533418
2004-07-29 11:14:07 51°22.145 2°51.999 19.384912 4.514968 33.126944 0.634546
2004-07-29 11:15:07 51°21.939 2°52.024 19.337503 4.517184 33.142878 0.567127
2004-07-29 11:16:06 51°21.736 2°52.041 19.405727 4.520875 33.143888 0.533418
2004-07-29 11:17:12 51°21.508 2°52.062 19.492881 4.528152 33.14956 0.533418
2004-07-29 11:18:12 51°21.301 2°52.078 19.556965 4.536485 33.156582 0.465999
2004-07-29 11:19:12 51°21.093 2°52.097 19.477759 4.534481 33.1587 0.567127
2004-07-29 11:20:12 51°20.885 2°52.106 19.590877 4.531105 33.142296 0.600836
2004-07-29 11:21:12 51°20.675 2°52.116 19.26917 4.533849 33.242458 0.600836
2004-07-29 11:22:12 51°20.463 2°52.124 19.196678 4.519717 33.262119 0.600836
2004-07-29 11:23:12 51°20.252 2°52.124 19.199257 4.515076 33.25 0.600836
2004-07-29 11:24:12 51°20.04 2°52.135 19.227124 4.514865 33.238041 0.634546
2004-07-29 11:25:12 51°19.828 2°52.142 19.240174 4.513704 33.213169 0.567127
2004-07-29 11:26:12 51°19.616 2°52.151 19.275671 4.512227 33.177795 0.533418
2004-07-29 11:27:12 51°19.405 2°52.169 19.331457 4.509274 33.149536 0.600836
2004-07-29 11:28:12 51°19.197 2°52.189 19.528739 4.516655 33.096343 0.904221
2004-07-29 11:29:12 51°18.989 2°52.211 19.571704 4.519712 32.995986 1.207606
2004-07-29 11:30:12 51°18.778 2°52.237 19.549024 4.508215 32.917101 1.241315
2004-07-29 11:31:12 51°18.566 2°52.257 19.585952 4.50927 32.935186 1.578409
2004-07-29 11:32:12 51°18.354 2°52.284 19.674956 4.555576 33.206118 1.746956
2004-07-29 11:33:12 51°18.143 2°52.303 19.691784 4.604839 33.589192 2.286306
2004-07-29 11:34:12 51°17.934 2°52.318 19.685728 4.625727 33.77128 2.320016
2004-07-29 11:35:12 51°17.725 2°52.331 19.714906 4.621823 33.733104 2.421144
2004-07-29 11:36:12 51°17.515 2°52.35 19.772535 4.622245 33.70986 2.522272
2004-07-29 11:37:12 51°17.306 2°52.37 19.866492 4.632898 33.725401 2.589691
2004-07-29 11:38:12 51°17.099 2°52.445 19.830563 4.633636 33.695217 2.522272
2004-07-29 11:39:12 51°16.897 2°52.56 19.853315 4.630366 33.699096 2.421144
2004-07-29 11:40:12 51°16.693 2°52.668 19.809792 4.646718 33.819958 2.589691
2004-07-29 11:41:12 51°16.488 2°52.768 19.840703 4.651993 33.866955 2.454853
2004-07-29 11:42:12 51°16.282 2°52.863 19.889557 4.638911 33.73819 2.117759
2004-07-29 11:43:12 51°16.075 2°52.957 19.869776 4.62604 33.624329 2.218888
2004-07-29 11:44:12 51°15.866 2°53.05 19.836647 4.610955 33.535271 2.454853
2004-07-29 11:45:12 51°15.665 2°53.187 19.918488 4.611693 33.49576 2.320016
2004-07-29 11:46:12 51°15.468 2°53.338 19.89827 4.621292 33.53117 2.185178
2004-07-29 11:47:12 51°15.27 2°53.491 20.009136 4.619604 33.516332 2.185178
2004-07-29 11:48:12 51°15.127 2°53.571 20.109969 4.650513 33.681453 1.982922
2004-07-29 11:49:12 51°15.061 2°53.537 20.189556 4.676464 33.850916 -0.14077
2004-07-29 11:50:12 51°15.032 2°53.489 20.363236 4.67562 33.84407 -0.646411
2004-07-29 11:51:12 51°15.005 2°53.447 20.427537 4.675831 33.846345 -0.612702
2004-07-29 11:52:12 51°14.936 2°53.532 20.492905 4.676042 33.849185 -0.646411
2004-07-29 11:53:12 51°14.838 2°53.784 20.573305 4.676042 33.849185 -0.578993
2004-07-29 11:54:12 51°14.729 2°54.065 20.65189 4.676359 33.850061 -0.646411
2004-07-29 11:55:12 51°14.617 2°54.344 20.726983 4.67657 33.848389 -0.646411
2004-07-29 11:56:12 51°14.507 2°54.629 20.810038 4.676886 33.848138 -0.646411
2004-07-29 11:57:12 51°14.406 2°54.922 20.888441 4.677203 33.849014 -0.646411
2004-07-29 11:58:12 51°14.299 2°55.182 20.967675 4.677519 33.848199 -0.612702
2004-07-29 11:59:12 51°14.192 2°55.349 21.033263 4.678046 33.848531 -0.612702
2004-07-29 12:00:12 51°14.076 2°55.445 21.112535 4.678574 33.848864 -0.646411
2004-07-29 12:01:12 51°13.957 2°55.534 21.185391 4.679207 33.851179 -0.646411
2004-07-29 12:02:12 51°13.838 2°55.627 21.26656 4.67984 33.851803 -0.646411
2004-07-29 12:03:12 51°13.733 2°55.733 21.304706 4.680578 33.854409 -0.646411
2004-07-29 12:04:12 51°13.68 2°55.848 21.36538 4.681317 33.855889 -0.646411
2004-07-29 12:05:10 51°13.644 2°55.943 21.48574 4.68216 33.858223 -0.646411
2004-07-29 12:06:12 51°13.616 2°56.026 21.531768 4.682899 33.860265 -0.646411
2004-07-29 12:07:12 51°13.604 2°56.073 21.627492 4.683532 33.860889 -0.612702
2004-07-29 12:08:12 51°13.596 2°56.095 21.669635 4.684376 33.861534 -0.612702
2004-07-29 12:09:10 51°13.595 2°56.097 21.707961 4.68522 33.862742 -0.612702
2004-07-29 12:10:16 51°13.596 2°56.097 21.78459 4.686063 33.864512 -0.646411
2004-07-29 12:11:15 51°13.597 2°56.098 21.830938 4.687013 33.866011 -0.646411